Beverly Manor, Illinois
Current Conditions -  °F | °C
As of 7:54 AM on Thursday 18 Dec 2014 (Local Time) from KPIA Reporting Station
Overcast Overcast  
Wind Chill: 22°   Ceiling: 11000
Heat Index: 22°   Visibility: 9mi
Dew Point: 17°   Wind: 3mph
Humidity: 82%   Direction: 40°NE
Pressure: 30.31"   Gusts: NA
Location:  40.703°N, 89.4173°W
Report Text: KPIA 181354Z 04003KT 9SM OVC110 M06/M08 A3031 RMK AO2 SLP275 T10561083
Loading
Personal Weather Stations






























Interactive Weather Map New forecast layout! Learn more

10-Day Weather Forecast

Advertisements
Track Severe Weather on mobile